sensor_id;sensor_type;location;lat;lon;timestamp;temperature;humidity
780;DHT22;373;49.342;8.146;2023-01-08T00:01:09;9.20;99.90
780;DHT22;373;49.342;8.146;2023-01-08T00:08:37;9.00;99.90
780;DHT22;373;49.342;8.146;2023-01-08T00:14:37;9.00;99.90
780;DHT22;373;49.342;8.146;2023-01-08T00:17:14;9.00;99.90
780;DHT22;373;49.342;8.146;2023-01-08T00:24:10;9.10;99.90
780;DHT22;373;49.342;8.146;2023-01-08T00:26:47;9.00;99.90
780;DHT22;373;49.342;8.146;2023-01-08T00:34:38;9.00;99.90
780;DHT22;373;49.342;8.146;2023-01-08T00:37:05;9.00;99.90
780;DHT22;373;49.342;8.146;2023-01-08T00:39:35;9.00;99.90
780;DHT22;373;49.342;8.146;2023-01-08T00:42:04;9.20;99.90
780;DHT22;373;49.342;8.146;2023-01-08T00:44:43;9.10;99.90
780;DHT22;373;49.342;8.146;2023-01-08T00:47:16;9.30;99.90
780;DHT22;373;49.342;8.146;2023-01-08T00:49:51;9.40;99.90
780;DHT22;373;49.342;8.146;2023-01-08T00:52:44;9.40;99.90
780;DHT22;373;49.342;8.146;2023-01-08T00:55:14;9.40;99.90
780;DHT22;373;49.342;8.146;2023-01-08T00:57:44;9.50;99.90
780;DHT22;373;49.342;8.146;2023-01-08T01:00:14;9.50;99.90
780;DHT22;373;49.342;8.146;2023-01-08T01:02:43;9.50;99.90
780;DHT22;373;49.342;8.146;2023-01-08T01:06:22;9.60;99.90
780;DHT22;373;49.342;8.146;2023-01-08T01:33:49;9.80;99.90
780;DHT22;373;49.342;8.146;2023-01-08T01:36:18;9.90;99.90
780;DHT22;373;49.342;8.146;2023-01-08T01:38:50;9.90;99.90
780;DHT22;373;49.342;8.146;2023-01-08T01:41:20;9.80;99.90
780;DHT22;373;49.342;8.146;2023-01-08T01:43:50;9.30;99.90
780;DHT22;373;49.342;8.146;2023-01-08T01:46:25;9.20;99.90
780;DHT22;373;49.342;8.146;2023-01-08T01:48:57;9.10;99.90
780;DHT22;373;49.342;8.146;2023-01-08T01:51:30;9.10;99.90
780;DHT22;373;49.342;8.146;2023-01-08T01:53:58;9.10;99.90
780;DHT22;373;49.342;8.146;2023-01-08T01:56:26;9.10;99.90
780;DHT22;373;49.342;8.146;2023-01-08T01:58:54;9.20;99.90
780;DHT22;373;49.342;8.146;2023-01-08T02:01:22;9.40;99.90
780;DHT22;373;49.342;8.146;2023-01-08T02:03:50;9.50;99.90
780;DHT22;373;49.342;8.146;2023-01-08T02:06:26;9.40;99.90
780;DHT22;373;49.342;8.146;2023-01-08T02:09:01;9.40;99.90
780;DHT22;373;49.342;8.146;2023-01-08T02:11:38;9.40;99.90
780;DHT22;373;49.342;8.146;2023-01-08T02:14:12;9.40;99.90
780;DHT22;373;49.342;8.146;2023-01-08T02:16:48;9.50;99.90
780;DHT22;373;49.342;8.146;2023-01-08T02:19:26;9.40;99.90
780;DHT22;373;49.342;8.146;2023-01-08T02:22:04;9.10;99.90
780;DHT22;373;49.342;8.146;2023-01-08T02:24:45;9.20;99.90
780;DHT22;373;49.342;8.146;2023-01-08T02:27:16;9.40;99.90
780;DHT22;373;49.342;8.146;2023-01-08T02:29:44;9.60;99.90
780;DHT22;373;49.342;8.146;2023-01-08T02:32:12;9.60;99.90
780;DHT22;373;49.342;8.146;2023-01-08T02:34:40;9.60;99.90
780;DHT22;373;49.342;8.146;2023-01-08T02:37:07;9.70;99.90
780;DHT22;373;49.342;8.146;2023-01-08T02:39:45;9.80;99.90
780;DHT22;373;49.342;8.146;2023-01-08T02:42:22;9.70;99.90
780;DHT22;373;49.342;8.146;2023-01-08T02:44:57;9.40;99.90
780;DHT22;373;49.342;8.146;2023-01-08T02:47:31;9.20;99.90
780;DHT22;373;49.342;8.146;2023-01-08T02:50:06;9.30;99.90
780;DHT22;373;49.342;8.146;2023-01-08T02:52:39;9.20;99.90
780;DHT22;373;49.342;8.146;2023-01-08T02:55:08;9.20;99.90
780;DHT22;373;49.342;8.146;2023-01-08T02:57:38;9.60;99.90
780;DHT22;373;49.342;8.146;2023-01-08T03:00:07;10.00;99.90
780;DHT22;373;49.342;8.146;2023-01-08T03:02:35;10.30;99.90
780;DHT22;373;49.342;8.146;2023-01-08T03:05:08;10.30;99.90
780;DHT22;373;49.342;8.146;2023-01-08T03:07:39;10.40;99.90
780;DHT22;373;49.342;8.146;2023-01-08T03:10:07;10.20;99.90
780;DHT22;373;49.342;8.146;2023-01-08T03:12:44;9.80;99.90
780;DHT22;373;49.342;8.146;2023-01-08T03:15:19;9.60;99.90
780;DHT22;373;49.342;8.146;2023-01-08T03:17:50;9.70;99.90
780;DHT22;373;49.342;8.146;2023-01-08T03:20:22;9.90;99.90
780;DHT22;373;49.342;8.146;2023-01-08T03:22:53;10.20;99.90
780;DHT22;373;49.342;8.146;2023-01-08T03:25:22;10.40;99.90
780;DHT22;373;49.342;8.146;2023-01-08T03:27:55;10.40;99.90
780;DHT22;373;49.342;8.146;2023-01-08T03:30:26;10.20;99.90
780;DHT22;373;49.342;8.146;2023-01-08T03:32:57;10.40;99.90
780;DHT22;373;49.342;8.146;2023-01-08T03:35:25;10.20;99.90
780;DHT22;373;49.342;8.146;2023-01-08T03:37:59;9.90;99.90
780;DHT22;373;49.342;8.146;2023-01-08T03:40:33;9.60;99.90
780;DHT22;373;49.342;8.146;2023-01-08T03:43:02;9.50;99.90
780;DHT22;373;49.342;8.146;2023-01-08T03:45:30;9.60;99.90
780;DHT22;373;49.342;8.146;2023-01-08T03:47:59;9.90;99.90
780;DHT22;373;49.342;8.146;2023-01-08T03:50:29;10.20;99.90
780;DHT22;373;49.342;8.146;2023-01-08T03:52:57;10.10;99.90
780;DHT22;373;49.342;8.146;2023-01-08T03:55:24;10.10;99.90
780;DHT22;373;49.342;8.146;2023-01-08T03:57:51;10.00;99.90
780;DHT22;373;49.342;8.146;2023-01-08T04:00:19;9.80;99.90
780;DHT22;373;49.342;8.146;2023-01-08T04:02:47;9.60;99.90
780;DHT22;373;49.342;8.146;2023-01-08T04:05:14;9.40;99.90
780;DHT22;373;49.342;8.146;2023-01-08T04:07:41;9.40;99.90
780;DHT22;373;49.342;8.146;2023-01-08T04:10:09;9.40;99.90
780;DHT22;373;49.342;8.146;2023-01-08T04:12:36;9.20;99.90
780;DHT22;373;49.342;8.146;2023-01-08T04:15:04;9.20;99.90
780;DHT22;373;49.342;8.146;2023-01-08T04:17:32;9.10;99.90
780;DHT22;373;49.342;8.146;2023-01-08T04:19:59;9.30;99.90
780;DHT22;373;49.342;8.146;2023-01-08T04:22:26;9.20;99.90
780;DHT22;373;49.342;8.146;2023-01-08T04:24:53;9.70;99.90
780;DHT22;373;49.342;8.146;2023-01-08T04:27:20;9.70;99.90
780;DHT22;373;49.342;8.146;2023-01-08T04:29:47;9.70;99.90
780;DHT22;373;49.342;8.146;2023-01-08T04:32:14;9.70;99.90
780;DHT22;373;49.342;8.146;2023-01-08T04:34:43;10.00;99.90
780;DHT22;373;49.342;8.146;2023-01-08T04:37:10;10.20;99.90
780;DHT22;373;49.342;8.146;2023-01-08T04:39:37;9.90;99.90
780;DHT22;373;49.342;8.146;2023-01-08T04:42:04;9.50;99.90
780;DHT22;373;49.342;8.146;2023-01-08T04:44:32;9.40;99.90
780;DHT22;373;49.342;8.146;2023-01-08T04:46:59;9.40;99.90
780;DHT22;373;49.342;8.146;2023-01-08T04:49:26;9.30;99.90
780;DHT22;373;49.342;8.146;2023-01-08T04:51:54;9.30;99.90
780;DHT22;373;49.342;8.146;2023-01-08T04:54:21;9.20;99.90
780;DHT22;373;49.342;8.146;2023-01-08T04:56:49;9.50;99.90
780;DHT22;373;49.342;8.146;2023-01-08T04:59:17;9.70;99.90
780;DHT22;373;49.342;8.146;2023-01-08T05:01:44;9.80;99.90
780;DHT22;373;49.342;8.146;2023-01-08T05:04:11;10.00;99.90
780;DHT22;373;49.342;8.146;2023-01-08T05:06:39;10.00;99.90
780;DHT22;373;49.342;8.146;2023-01-08T05:09:07;10.00;99.90
780;DHT22;373;49.342;8.146;2023-01-08T05:11:34;10.10;99.90
780;DHT22;373;49.342;8.146;2023-01-08T05:14:03;10.20;99.90
780;DHT22;373;49.342;8.146;2023-01-08T05:16:30;10.10;99.90
780;DHT22;373;49.342;8.146;2023-01-08T05:18:57;10.10;99.90
780;DHT22;373;49.342;8.146;2023-01-08T05:21:24;10.10;99.90
780;DHT22;373;49.342;8.146;2023-01-08T05:23:51;10.10;99.90
780;DHT22;373;49.342;8.146;2023-01-08T05:26:20;10.00;99.90
780;DHT22;373;49.342;8.146;2023-01-08T05:28:47;10.00;99.90
780;DHT22;373;49.342;8.146;2023-01-08T05:31:14;9.90;99.90
780;DHT22;373;49.342;8.146;2023-01-08T05:33:41;9.90;99.90
780;DHT22;373;49.342;8.146;2023-01-08T05:36:10;9.90;99.90
780;DHT22;373;49.342;8.146;2023-01-08T05:38:38;9.70;99.90
780;DHT22;373;49.342;8.146;2023-01-08T05:41:05;9.60;99.90
780;DHT22;373;49.342;8.146;2023-01-08T05:43:34;9.40;99.90
780;DHT22;373;49.342;8.146;2023-01-08T05:46:02;9.30;99.90
780;DHT22;373;49.342;8.146;2023-01-08T05:48:31;9.20;99.90
780;DHT22;373;49.342;8.146;2023-01-08T05:50:59;9.20;99.90
780;DHT22;373;49.342;8.146;2023-01-08T05:53:26;9.10;99.90
780;DHT22;373;49.342;8.146;2023-01-08T05:55:58;9.10;99.90
780;DHT22;373;49.342;8.146;2023-01-08T05:58:25;9.10;99.90
780;DHT22;373;49.342;8.146;2023-01-08T06:00:53;9.10;99.90
780;DHT22;373;49.342;8.146;2023-01-08T06:03:21;9.10;99.90
780;DHT22;373;49.342;8.146;2023-01-08T06:05:48;9.00;99.90
780;DHT22;373;49.342;8.146;2023-01-08T06:08:15;9.10;99.90
780;DHT22;373;49.342;8.146;2023-01-08T06:10:42;9.00;99.90
780;DHT22;373;49.342;8.146;2023-01-08T06:13:09;8.80;99.90
780;DHT22;373;49.342;8.146;2023-01-08T06:15:37;8.70;99.90
780;DHT22;373;49.342;8.146;2023-01-08T06:18:06;8.70;99.90
780;DHT22;373;49.342;8.146;2023-01-08T06:20:33;8.60;99.90
780;DHT22;373;49.342;8.146;2023-01-08T06:23:00;8.50;99.90
780;DHT22;373;49.342;8.146;2023-01-08T06:25:27;8.40;99.90
780;DHT22;373;49.342;8.146;2023-01-08T06:27:55;8.40;99.90
780;DHT22;373;49.342;8.146;2023-01-08T06:30:22;8.40;99.90
780;DHT22;373;49.342;8.146;2023-01-08T06:32:49;8.40;99.90
780;DHT22;373;49.342;8.146;2023-01-08T06:35:22;8.40;99.90
780;DHT22;373;49.342;8.146;2023-01-08T06:37:49;8.30;99.90
780;DHT22;373;49.342;8.146;2023-01-08T06:40:17;8.30;99.90
780;DHT22;373;49.342;8.146;2023-01-08T06:42:44;8.30;99.90
780;DHT22;373;49.342;8.146;2023-01-08T06:45:11;8.20;99.90
780;DHT22;373;49.342;8.146;2023-01-08T06:47:38;8.30;99.90
780;DHT22;373;49.342;8.146;2023-01-08T06:50:05;8.40;99.90
780;DHT22;373;49.342;8.146;2023-01-08T06:52:34;8.40;99.90
780;DHT22;373;49.342;8.146;2023-01-08T06:55:01;8.30;99.90
780;DHT22;373;49.342;8.146;2023-01-08T06:57:30;8.40;99.90
780;DHT22;373;49.342;8.146;2023-01-08T06:59:58;8.30;99.90
780;DHT22;373;49.342;8.146;2023-01-08T07:02:25;8.30;99.90
780;DHT22;373;49.342;8.146;2023-01-08T07:04:52;8.30;99.90
780;DHT22;373;49.342;8.146;2023-01-08T07:07:19;8.30;99.90
780;DHT22;373;49.342;8.146;2023-01-08T07:09:47;8.30;99.90
780;DHT22;373;49.342;8.146;2023-01-08T07:12:14;8.30;99.90
780;DHT22;373;49.342;8.146;2023-01-08T07:14:41;8.40;99.90
780;DHT22;373;49.342;8.146;2023-01-08T07:17:08;8.30;99.90
780;DHT22;373;49.342;8.146;2023-01-08T07:19:35;8.40;99.90
780;DHT22;373;49.342;8.146;2023-01-08T07:22:02;8.40;99.90
780;DHT22;373;49.342;8.146;2023-01-08T07:24:29;8.50;99.90
780;DHT22;373;49.342;8.146;2023-01-08T07:26:58;8.60;99.90
780;DHT22;373;49.342;8.146;2023-01-08T07:29:25;8.60;99.90
780;DHT22;373;49.342;8.146;2023-01-08T07:31:57;8.70;99.90
780;DHT22;373;49.342;8.146;2023-01-08T07:34:24;8.80;99.90
780;DHT22;373;49.342;8.146;2023-01-08T07:36:51;8.80;99.90
780;DHT22;373;49.342;8.146;2023-01-08T07:39:18;8.70;99.90
780;DHT22;373;49.342;8.146;2023-01-08T07:41:45;8.70;99.90
780;DHT22;373;49.342;8.146;2023-01-08T07:44:13;8.80;99.90
780;DHT22;373;49.342;8.146;2023-01-08T07:46:40;8.60;99.90
780;DHT22;373;49.342;8.146;2023-01-08T07:49:07;8.70;99.90
780;DHT22;373;49.342;8.146;2023-01-08T07:51:35;8.70;99.90
780;DHT22;373;49.342;8.146;2023-01-08T07:54:02;8.70;99.90
780;DHT22;373;49.342;8.146;2023-01-08T07:56:29;8.70;99.90
780;DHT22;373;49.342;8.146;2023-01-08T07:58:56;8.80;99.90
780;DHT22;373;49.342;8.146;2023-01-08T08:01:25;8.70;99.90
780;DHT22;373;49.342;8.146;2023-01-08T08:03:52;8.80;99.90
780;DHT22;373;49.342;8.146;2023-01-08T08:06:19;8.70;99.90
780;DHT22;373;49.342;8.146;2023-01-08T08:08:46;8.80;99.90
780;DHT22;373;49.342;8.146;2023-01-08T08:11:13;8.90;99.90
780;DHT22;373;49.342;8.146;2023-01-08T08:13:40;8.90;99.90
780;DHT22;373;49.342;8.146;2023-01-08T08:16:10;9.00;99.90
780;DHT22;373;49.342;8.146;2023-01-08T08:18:40;9.00;99.90
780;DHT22;373;49.342;8.146;2023-01-08T08:21:07;9.10;99.90
780;DHT22;373;49.342;8.146;2023-01-08T08:23:34;9.10;99.90
780;DHT22;373;49.342;8.146;2023-01-08T08:26:02;8.90;99.90
780;DHT22;373;49.342;8.146;2023-01-08T08:28:30;8.80;99.90
780;DHT22;373;49.342;8.146;2023-01-08T08:30:57;8.80;99.90
780;DHT22;373;49.342;8.146;2023-01-08T08:33:24;8.90;99.90
780;DHT22;373;49.342;8.146;2023-01-08T08:35:53;9.10;99.90
780;DHT22;373;49.342;8.146;2023-01-08T08:38:20;9.00;99.90
780;DHT22;373;49.342;8.146;2023-01-08T08:40:47;8.80;99.90
780;DHT22;373;49.342;8.146;2023-01-08T08:43:14;8.70;99.90
780;DHT22;373;49.342;8.146;2023-01-08T08:45:41;8.80;99.90
780;DHT22;373;49.342;8.146;2023-01-08T08:48:08;8.80;99.90
780;DHT22;373;49.342;8.146;2023-01-08T08:50:36;8.70;99.90
780;DHT22;373;49.342;8.146;2023-01-08T08:53:05;8.70;99.90
780;DHT22;373;49.342;8.146;2023-01-08T08:55:33;8.80;99.90
780;DHT22;373;49.342;8.146;2023-01-08T08:58:05;8.80;99.90
780;DHT22;373;49.342;8.146;2023-01-08T09:00:32;8.90;99.90
780;DHT22;373;49.342;8.146;2023-01-08T09:02:59;8.90;99.90
780;DHT22;373;49.342;8.146;2023-01-08T09:05:27;8.90;99.90
780;DHT22;373;49.342;8.146;2023-01-08T09:07:55;9.00;99.90
780;DHT22;373;49.342;8.146;2023-01-08T09:10:23;9.00;99.90
780;DHT22;373;49.342;8.146;2023-01-08T09:12:52;8.90;99.90
780;DHT22;373;49.342;8.146;2023-01-08T09:15:19;8.90;99.90
780;DHT22;373;49.342;8.146;2023-01-08T09:17:51;8.80;99.90
780;DHT22;373;49.342;8.146;2023-01-08T09:20:25;8.80;99.90
780;DHT22;373;49.342;8.146;2023-01-08T09:22:52;8.80;99.90
780;DHT22;373;49.342;8.146;2023-01-08T09:25:19;8.80;99.90
780;DHT22;373;49.342;8.146;2023-01-08T09:27:48;8.80;99.90
780;DHT22;373;49.342;8.146;2023-01-08T09:30:17;8.80;99.90
780;DHT22;373;49.342;8.146;2023-01-08T09:32:44;8.90;99.90
780;DHT22;373;49.342;8.146;2023-01-08T09:35:12;9.10;99.90
780;DHT22;373;49.342;8.146;2023-01-08T09:37:39;9.20;99.90
780;DHT22;373;49.342;8.146;2023-01-08T09:40:08;9.20;99.90
780;DHT22;373;49.342;8.146;2023-01-08T09:42:37;9.20;99.90
780;DHT22;373;49.342;8.146;2023-01-08T09:45:15;9.10;99.90
780;DHT22;373;49.342;8.146;2023-01-08T09:47:48;9.20;99.90
780;DHT22;373;49.342;8.146;2023-01-08T09:50:16;9.10;99.90
780;DHT22;373;49.342;8.146;2023-01-08T09:52:43;9.30;99.90
780;DHT22;373;49.342;8.146;2023-01-08T09:55:13;9.30;99.90
780;DHT22;373;49.342;8.146;2023-01-08T09:57:41;9.20;99.90
780;DHT22;373;49.342;8.146;2023-01-08T10:00:13;9.20;99.90
780;DHT22;373;49.342;8.146;2023-01-08T10:02:41;9.10;99.90
780;DHT22;373;49.342;8.146;2023-01-08T10:05:11;9.10;99.90
780;DHT22;373;49.342;8.146;2023-01-08T10:07:39;9.10;99.90
780;DHT22;373;49.342;8.146;2023-01-08T10:10:16;9.10;99.90
780;DHT22;373;49.342;8.146;2023-01-08T10:12:45;9.10;99.90
780;DHT22;373;49.342;8.146;2023-01-08T10:15:16;9.10;99.90
780;DHT22;373;49.342;8.146;2023-01-08T10:17:45;9.20;99.90
780;DHT22;373;49.342;8.146;2023-01-08T10:20:17;9.20;99.90
780;DHT22;373;49.342;8.146;2023-01-08T10:22:46;9.20;99.90
780;DHT22;373;49.342;8.146;2023-01-08T10:25:15;9.20;99.90
780;DHT22;373;49.342;8.146;2023-01-08T10:27:47;9.20;99.90
780;DHT22;373;49.342;8.146;2023-01-08T10:30:18;9.30;99.90
780;DHT22;373;49.342;8.146;2023-01-08T10:32:48;9.40;99.90
780;DHT22;373;49.342;8.146;2023-01-08T10:35:19;9.50;99.90
780;DHT22;373;49.342;8.146;2023-01-08T10:37:47;10.00;99.90
780;DHT22;373;49.342;8.146;2023-01-08T10:40:24;10.30;99.90
780;DHT22;373;49.342;8.146;2023-01-08T10:42:55;10.40;99.90
780;DHT22;373;49.342;8.146;2023-01-08T10:45:26;10.30;99.90
780;DHT22;373;49.342;8.146;2023-01-08T10:47:57;10.00;99.90
780;DHT22;373;49.342;8.146;2023-01-08T10:50:27;9.90;99.90
780;DHT22;373;49.342;8.146;2023-01-08T10:52:55;9.70;99.90
780;DHT22;373;49.342;8.146;2023-01-08T10:55:25;9.60;99.90
780;DHT22;373;49.342;8.146;2023-01-08T10:57:58;9.60;99.90
780;DHT22;373;49.342;8.146;2023-01-08T11:00:28;9.60;99.90
780;DHT22;373;49.342;8.146;2023-01-08T11:02:57;9.60;99.90
780;DHT22;373;49.342;8.146;2023-01-08T11:05:31;9.80;99.90
780;DHT22;373;49.342;8.146;2023-01-08T11:07:59;9.80;99.90
780;DHT22;373;49.342;8.146;2023-01-08T11:10:28;9.80;99.90
780;DHT22;373;49.342;8.146;2023-01-08T11:12:58;9.90;99.90
780;DHT22;373;49.342;8.146;2023-01-08T11:15:31;10.00;99.90
780;DHT22;373;49.342;8.146;2023-01-08T11:18:09;10.60;99.90
780;DHT22;373;49.342;8.146;2023-01-08T11:20:37;10.60;99.90
780;DHT22;373;49.342;8.146;2023-01-08T11:23:14;10.40;99.90
780;DHT22;373;49.342;8.146;2023-01-08T11:25:44;10.40;99.90
780;DHT22;373;49.342;8.146;2023-01-08T11:28:18;10.30;99.90
780;DHT22;373;49.342;8.146;2023-01-08T11:30:53;10.20;99.90
780;DHT22;373;49.342;8.146;2023-01-08T11:33:24;10.30;99.90
780;DHT22;373;49.342;8.146;2023-01-08T11:35:57;10.50;99.90
780;DHT22;373;49.342;8.146;2023-01-08T11:38:24;10.30;99.90
780;DHT22;373;49.342;8.146;2023-01-08T11:41:00;10.20;99.90
780;DHT22;373;49.342;8.146;2023-01-08T11:43:35;10.30;99.90
780;DHT22;373;49.342;8.146;2023-01-08T11:46:19;10.30;99.90
780;DHT22;373;49.342;8.146;2023-01-08T11:49:12;10.30;99.90
780;DHT22;373;49.342;8.146;2023-01-08T11:52:01;10.30;99.90
780;DHT22;373;49.342;8.146;2023-01-08T11:54:45;10.30;99.90
780;DHT22;373;49.342;8.146;2023-01-08T11:57:28;10.40;99.90
780;DHT22;373;49.342;8.146;2023-01-08T12:00:11;10.40;99.90
780;DHT22;373;49.342;8.146;2023-01-08T12:02:51;10.40;99.90
780;DHT22;373;49.342;8.146;2023-01-08T12:05:27;10.40;99.90
780;DHT22;373;49.342;8.146;2023-01-08T12:08:02;10.40;99.90
780;DHT22;373;49.342;8.146;2023-01-08T12:10:40;10.40;99.90
780;DHT22;373;49.342;8.146;2023-01-08T12:13:20;10.50;99.90
780;DHT22;373;49.342;8.146;2023-01-08T12:16:00;10.50;99.90
780;DHT22;373;49.342;8.146;2023-01-08T12:18:45;10.40;99.90
780;DHT22;373;49.342;8.146;2023-01-08T12:21:21;10.30;99.90
780;DHT22;373;49.342;8.146;2023-01-08T12:24:09;10.30;99.90
780;DHT22;373;49.342;8.146;2023-01-08T12:26:44;10.20;99.90
780;DHT22;373;49.342;8.146;2023-01-08T12:29:27;10.20;99.90
780;DHT22;373;49.342;8.146;2023-01-08T12:32:16;10.20;99.90
780;DHT22;373;49.342;8.146;2023-01-08T12:34:53;10.30;99.90
780;DHT22;373;49.342;8.146;2023-01-08T12:37:25;10.50;99.90
780;DHT22;373;49.342;8.146;2023-01-08T12:39:56;10.50;99.90
780;DHT22;373;49.342;8.146;2023-01-08T12:42:29;10.60;99.90
780;DHT22;373;49.342;8.146;2023-01-08T12:45:01;10.60;99.90
780;DHT22;373;49.342;8.146;2023-01-08T12:47:32;10.70;99.90
780;DHT22;373;49.342;8.146;2023-01-08T12:50:16;10.50;99.90
780;DHT22;373;49.342;8.146;2023-01-08T12:52:50;10.40;99.90
780;DHT22;373;49.342;8.146;2023-01-08T12:55:28;10.40;99.90
780;DHT22;373;49.342;8.146;2023-01-08T12:58:02;10.40;99.90
780;DHT22;373;49.342;8.146;2023-01-08T13:00:36;10.50;99.90
780;DHT22;373;49.342;8.146;2023-01-08T13:03:11;10.50;99.90
780;DHT22;373;49.342;8.146;2023-01-08T13:05:41;10.60;99.90
780;DHT22;373;49.342;8.146;2023-01-08T13:08:26;10.60;99.90
780;DHT22;373;49.342;8.146;2023-01-08T13:10:55;10.50;99.90
780;DHT22;373;49.342;8.146;2023-01-08T13:13:26;10.60;99.90
780;DHT22;373;49.342;8.146;2023-01-08T13:16:08;10.60;99.90
780;DHT22;373;49.342;8.146;2023-01-08T13:18:51;10.60;99.90
780;DHT22;373;49.342;8.146;2023-01-08T13:21:33;10.70;99.90
780;DHT22;373;49.342;8.146;2023-01-08T13:24:04;10.80;99.90
780;DHT22;373;49.342;8.146;2023-01-08T13:26:34;10.70;99.90
780;DHT22;373;49.342;8.146;2023-01-08T13:29:34;10.70;99.90
780;DHT22;373;49.342;8.146;2023-01-08T13:32:02;10.80;99.90
780;DHT22;373;49.342;8.146;2023-01-08T13:34:36;10.80;99.90
780;DHT22;373;49.342;8.146;2023-01-08T13:37:06;10.90;99.90
780;DHT22;373;49.342;8.146;2023-01-08T13:39:35;10.90;99.90
780;DHT22;373;49.342;8.146;2023-01-08T13:42:16;10.90;99.90
780;DHT22;373;49.342;8.146;2023-01-08T13:44:48;10.90;99.90
780;DHT22;373;49.342;8.146;2023-01-08T13:47:23;10.90;99.90
780;DHT22;373;49.342;8.146;2023-01-08T13:49:54;10.60;99.90
780;DHT22;373;49.342;8.146;2023-01-08T13:52:32;10.40;99.90
780;DHT22;373;49.342;8.146;2023-01-08T13:55:02;10.20;99.90
780;DHT22;373;49.342;8.146;2023-01-08T13:57:36;10.10;99.90
780;DHT22;373;49.342;8.146;2023-01-08T14:00:06;10.20;99.90
780;DHT22;373;49.342;8.146;2023-01-08T14:02:41;10.20;99.90
780;DHT22;373;49.342;8.146;2023-01-08T14:05:23;10.30;99.90
780;DHT22;373;49.342;8.146;2023-01-08T14:07:52;10.40;99.90
780;DHT22;373;49.342;8.146;2023-01-08T14:10:20;10.70;99.90
780;DHT22;373;49.342;8.146;2023-01-08T14:12:47;10.60;99.90
780;DHT22;373;49.342;8.146;2023-01-08T14:15:24;10.60;99.90
780;DHT22;373;49.342;8.146;2023-01-08T14:17:52;10.70;99.90
780;DHT22;373;49.342;8.146;2023-01-08T14:20:26;10.80;99.90
780;DHT22;373;49.342;8.146;2023-01-08T14:22:56;10.80;99.90
780;DHT22;373;49.342;8.146;2023-01-08T14:25:23;11.00;99.90
780;DHT22;373;49.342;8.146;2023-01-08T14:27:54;11.00;99.90
780;DHT22;373;49.342;8.146;2023-01-08T14:30:22;10.90;99.90
780;DHT22;373;49.342;8.146;2023-01-08T14:32:50;10.90;99.90
780;DHT22;373;49.342;8.146;2023-01-08T14:35:33;10.90;99.90
780;DHT22;373;49.342;8.146;2023-01-08T14:38:02;10.90;99.90
780;DHT22;373;49.342;8.146;2023-01-08T14:40:33;10.90;99.90
780;DHT22;373;49.342;8.146;2023-01-08T14:43:07;10.80;99.90
780;DHT22;373;49.342;8.146;2023-01-08T14:45:36;10.80;99.90
780;DHT22;373;49.342;8.146;2023-01-08T14:48:09;10.80;99.90
780;DHT22;373;49.342;8.146;2023-01-08T14:50:39;10.70;99.90
780;DHT22;373;49.342;8.146;2023-01-08T14:53:16;10.70;99.90
780;DHT22;373;49.342;8.146;2023-01-08T14:55:47;10.60;99.90
780;DHT22;373;49.342;8.146;2023-01-08T14:58:16;10.60;99.90
780;DHT22;373;49.342;8.146;2023-01-08T15:00:50;10.60;99.90
780;DHT22;373;49.342;8.146;2023-01-08T15:03:36;10.50;99.90
780;DHT22;373;49.342;8.146;2023-01-08T15:06:05;10.50;99.90
780;DHT22;373;49.342;8.146;2023-01-08T15:08:36;10.50;99.90
780;DHT22;373;49.342;8.146;2023-01-08T15:11:04;10.40;99.90
780;DHT22;373;49.342;8.146;2023-01-08T15:13:33;10.40;99.90
780;DHT22;373;49.342;8.146;2023-01-08T15:16:05;10.30;99.90
780;DHT22;373;49.342;8.146;2023-01-08T15:18:38;10.30;99.90
780;DHT22;373;49.342;8.146;2023-01-08T15:21:07;10.20;99.90
780;DHT22;373;49.342;8.146;2023-01-08T15:23:39;10.30;99.90
780;DHT22;373;49.342;8.146;2023-01-08T15:26:09;10.10;99.90
780;DHT22;373;49.342;8.146;2023-01-08T15:28:42;10.10;99.90
780;DHT22;373;49.342;8.146;2023-01-08T15:31:09;10.10;99.90
780;DHT22;373;49.342;8.146;2023-01-08T15:33:36;10.10;99.90
780;DHT22;373;49.342;8.146;2023-01-08T15:36:05;10.00;99.90
780;DHT22;373;49.342;8.146;2023-01-08T15:38:32;10.00;99.90
780;DHT22;373;49.342;8.146;2023-01-08T15:41:01;10.00;99.90
780;DHT22;373;49.342;8.146;2023-01-08T15:43:28;9.80;99.90
780;DHT22;373;49.342;8.146;2023-01-08T15:45:54;9.80;99.90
780;DHT22;373;49.342;8.146;2023-01-08T15:48:21;9.70;99.90
780;DHT22;373;49.342;8.146;2023-01-08T15:50:48;9.70;99.90
780;DHT22;373;49.342;8.146;2023-01-08T15:53:18;9.70;99.90
780;DHT22;373;49.342;8.146;2023-01-08T15:55:47;9.70;99.90
780;DHT22;373;49.342;8.146;2023-01-08T15:58:16;9.70;99.90
780;DHT22;373;49.342;8.146;2023-01-08T16:00:44;9.70;99.90
780;DHT22;373;49.342;8.146;2023-01-08T16:03:12;9.70;99.90
780;DHT22;373;49.342;8.146;2023-01-08T16:05:40;9.70;99.90
780;DHT22;373;49.342;8.146;2023-01-08T16:08:09;9.70;99.90
780;DHT22;373;49.342;8.146;2023-01-08T16:10:36;9.70;99.90
780;DHT22;373;49.342;8.146;2023-01-08T16:13:03;9.80;99.90
780;DHT22;373;49.342;8.146;2023-01-08T16:15:32;9.90;99.90
780;DHT22;373;49.342;8.146;2023-01-08T16:17:59;9.90;99.90
780;DHT22;373;49.342;8.146;2023-01-08T16:20:26;10.00;99.90
780;DHT22;373;49.342;8.146;2023-01-08T16:22:53;9.90;99.90
780;DHT22;373;49.342;8.146;2023-01-08T16:25:21;9.80;99.90
780;DHT22;373;49.342;8.146;2023-01-08T16:27:49;9.80;99.90
780;DHT22;373;49.342;8.146;2023-01-08T16:30:17;9.70;99.90
780;DHT22;373;49.342;8.146;2023-01-08T16:32:50;9.70;99.90
780;DHT22;373;49.342;8.146;2023-01-08T16:35:17;9.80;99.90
780;DHT22;373;49.342;8.146;2023-01-08T16:37:45;9.80;99.90
780;DHT22;373;49.342;8.146;2023-01-08T16:40:13;9.90;99.90
780;DHT22;373;49.342;8.146;2023-01-08T16:42:40;9.80;99.90
780;DHT22;373;49.342;8.146;2023-01-08T16:45:07;9.90;99.90
780;DHT22;373;49.342;8.146;2023-01-08T16:47:36;9.90;99.90
780;DHT22;373;49.342;8.146;2023-01-08T16:50:05;10.10;99.90
780;DHT22;373;49.342;8.146;2023-01-08T16:52:32;10.10;99.90
780;DHT22;373;49.342;8.146;2023-01-08T16:54:59;10.10;99.90
780;DHT22;373;49.342;8.146;2023-01-08T16:57:26;10.10;99.90
780;DHT22;373;49.342;8.146;2023-01-08T16:59:53;9.90;99.90
780;DHT22;373;49.342;8.146;2023-01-08T17:02:20;9.70;99.90
780;DHT22;373;49.342;8.146;2023-01-08T17:04:47;9.50;99.90
780;DHT22;373;49.342;8.146;2023-01-08T17:07:16;9.50;99.90
780;DHT22;373;49.342;8.146;2023-01-08T17:09:43;9.50;99.90
780;DHT22;373;49.342;8.146;2023-01-08T17:12:10;9.40;99.90
780;DHT22;373;49.342;8.146;2023-01-08T17:14:47;9.40;99.90
780;DHT22;373;49.342;8.146;2023-01-08T17:17:16;9.30;99.90
780;DHT22;373;49.342;8.146;2023-01-08T17:19:43;9.40;99.90
780;DHT22;373;49.342;8.146;2023-01-08T17:22:10;9.50;99.90
780;DHT22;373;49.342;8.146;2023-01-08T17:24:39;9.70;99.90
780;DHT22;373;49.342;8.146;2023-01-08T17:27:06;9.70;99.90
780;DHT22;373;49.342;8.146;2023-01-08T17:29:33;9.70;99.90
780;DHT22;373;49.342;8.146;2023-01-08T17:32:00;9.40;99.90
780;DHT22;373;49.342;8.146;2023-01-08T17:34:27;9.30;99.90
780;DHT22;373;49.342;8.146;2023-01-08T17:36:54;8.90;99.90
780;DHT22;373;49.342;8.146;2023-01-08T17:39:21;8.70;99.90
780;DHT22;373;49.342;8.146;2023-01-08T17:41:50;8.80;99.90
780;DHT22;373;49.342;8.146;2023-01-08T17:44:49;8.90;99.90
780;DHT22;373;49.342;8.146;2023-01-08T17:47:16;8.90;99.90
780;DHT22;373;49.342;8.146;2023-01-08T17:49:47;9.10;99.90
780;DHT22;373;49.342;8.146;2023-01-08T17:52:14;9.10;99.90